Forside
METAR-TAF:

METAR-TAF

Lufthavne :

Wattisham, England

Breddekreds: 52-07N, længdekreds: 000-58E, højde: 87 m

Aktuelle vejr

Denne rapport blev lavet for 35 minutter siden, kl. 13:50 UTC
Vind 11 kt fra nordøst
Temperatur 8°C
Fugtighed 61%
Tryk 1031 hPa
Sigt 10 km eller mere
Nogle få skyer i en højde af 3000 ft
Brudte skyer i en højde af 4500 ft

METAR: EGUW 311350Z 05011KT 9999 FEW030 BKN045 08/01 Q1031 NOSIG RMK BLU BLU

Tid: 15:25 (14:25 UTC)

Vejrudsigter

Denne rapport blev lavet for 1 time og 57 minutter siden, kl. 12:28 UTC
Foreløbig gælder fra 31 på 12 UTC til 31 på 21 UTC
Vind 10 kt fra øst
Sigt 10 km eller mere
Spredte skyer i en højde af 3000 ft

TAF: EGUW 311228Z 3112/3121 09010KT 9999 SCT030

Vejrobservationer og prognoser fra mere end 4000 lufthavne (METAR og TAF).

De gule og røde prikker repræsenterer de meteorologiske stationer.

Flyt musen over at se navnet på stationen.

Så klik over at se vejr observationer og prognoser.

At skifte det kort: Klik på de grønne knapper med et sort kors for at zoome ind; på den grønne knap med en bindestreg for at zoome ud; eller på de grønne pile for tilstødende kort.


METAR-TAF: